Time;durP1;ratioP1;P1;durP2;ratioP2;P2;SDS_P1;SDS_P2;PMS_P1;PMS_P2;Temp;Humidity;BMP_temperature;BMP_pressure;BME280_temperature;BME280_humidity;BME280_pressure;Samples;Min_cycle;Max_cycle;Signal;HPM_P1;HPM_P2
2023/05/31 00:01:47;;;;;;;9.02;2.63;;;;;;;14.13;92.94;101645.59;5187704;28;20033;-74
2023/05/31 00:04:18;;;;;;;11.02;2.65;;;;;;;14.26;92.40;101646.94;5190517;28;20033;-75
2023/05/31 00:06:48;;;;;;;8.77;2.22;;;;;;;14.19;91.39;101643.66;5188901;28;20026;-73
2023/05/31 00:09:18;;;;;;;6.47;2.00;;;;;;;14.27;92.19;101648.66;5188793;28;20036;-76
2023/05/31 00:11:48;;;;;;;5.07;1.70;;;;;;;14.28;92.28;101650.38;5188003;28;20487;-73
2023/05/31 00:14:19;;;;;;;5.95;1.90;;;;;;;14.34;91.82;101656.28;5189070;28;20053;-76
2023/05/31 00:16:49;;;;;;;6.90;2.28;;;;;;;14.25;90.62;101663.63;5185174;28;20022;-74
2023/05/31 00:19:19;;;;;;;9.55;2.55;;;;;;;14.21;91.80;101668.13;5186574;28;20507;-74
2023/05/31 00:21:50;;;;;;;7.80;2.40;;;;;;;13.93;93.35;101671.66;5182656;28;20033;-74
2023/05/31 00:24:20;;;;;;;9.05;2.60;;;;;;;13.99;93.90;101674.09;5189525;28;20663;-76
2023/05/31 00:26:50;;;;;;;5.63;1.77;;;;;;;14.08;92.87;101672.00;5186244;28;20398;-73
2023/05/31 00:29:21;;;;;;;7.82;2.20;;;;;;;13.90;93.88;101671.75;5187355;28;20057;-75
2023/05/31 00:31:51;;;;;;;6.38;2.15;;;;;;;13.92;93.34;101662.06;5184567;28;20026;-76
2023/05/31 00:34:21;;;;;;;6.90;2.28;;;;;;;13.82;92.59;101665.88;5191510;28;20539;-77
2023/05/31 00:36:52;;;;;;;8.73;2.42;;;;;;;13.67;94.42;101674.22;5183579;28;20033;-76
2023/05/31 00:39:23;;;;;;;9.95;2.40;;;;;;;13.74;96.46;101665.25;5190457;28;20487;-76
2023/05/31 00:42:12;;;;;;;8.10;2.10;;;;;;;13.86;93.56;101660.47;5185116;28;20033;-75
2023/05/31 00:44:42;;;;;;;5.65;2.00;;;;;;;13.78;93.51;101662.47;5188980;28;20097;-75
2023/05/31 00:47:13;;;;;;;5.43;2.55;;;;;;;13.79;95.11;101668.59;5189867;28;20025;-72
2023/05/31 00:49:43;;;;;;;6.68;2.17;;;;;;;13.65;94.24;101660.28;5190678;28;20109;-75
2023/05/31 00:52:14;;;;;;;7.03;2.00;;;;;;;13.75;94.84;101664.34;5187087;28;20044;-75
2023/05/31 00:54:44;;;;;;;6.00;2.03;;;;;;;13.66;94.60;101673.38;5188374;28;20655;-74
2023/05/31 00:57:15;;;;;;;6.85;2.13;;;;;;;13.52;95.80;101674.69;5189875;28;20112;-74
2023/05/31 00:59:45;;;;;;;4.88;2.03;;;;;;;13.26;95.88;101677.22;5190250;28;20026;-75
2023/05/31 01:02:17;;;;;;;8.88;2.13;;;;;;;13.35;95.75;101679.56;5190052;28;20056;-77
2023/05/31 01:04:48;;;;;;;7.10;2.13;;;;;;;13.61;94.46;101677.88;5186260;28;20033;-73
2023/05/31 01:07:18;;;;;;;7.95;2.20;;;;;;;13.47;95.42;101679.22;5186578;28;20041;-77
2023/05/31 01:09:48;;;;;;;7.30;2.17;;;;;;;13.47;94.66;101679.22;5186329;28;20026;-74
2023/05/31 01:12:43;;;;;;;5.15;2.10;;;;;;;13.32;96.45;101692.81;5189037;28;20437;-76
2023/05/31 01:15:24;;;;;;;5.28;1.90;;;;;;;13.49;93.42;101690.53;5186362;28;20033;-74
2023/05/31 01:18:03;;;;;;;7.10;2.20;;;;;;;13.39;94.13;101694.34;5181685;28;20415;-75
2023/05/31 01:20:35;;;;;;;7.05;1.85;;;;;;;13.41;94.19;101688.13;5186740;28;20033;-76
2023/05/31 01:23:33;;;;;;;4.93;1.85;;;;;;;13.31;95.78;101691.97;5188742;28;20549;-75
2023/05/31 01:26:41;;;;;;;9.77;2.40;;;;;;;13.39;95.60;101689.94;5190305;28;20685;-74
2023/05/31 01:29:19;;;;;;;4.22;1.80;;;;;;;13.28;95.01;101689.44;5189667;28;20080;-75
2023/05/31 01:31:51;;;;;;;4.40;2.00;;;;;;;13.28;96.71;101684.16;5186634;28;20060;-75
2023/05/31 01:34:21;;;;;;;8.27;2.10;;;;;;;13.26;97.52;101690.34;5193097;28;20267;-76
2023/05/31 01:36:51;;;;;;;5.80;1.85;;;;;;;13.21;97.59;101694.88;5185160;28;20452;-76
2023/05/31 01:39:22;;;;;;;8.15;2.42;;;;;;;13.26;95.19;101695.63;5192209;28;20499;-76
2023/05/31 01:41:53;;;;;;;8.10;2.28;;;;;;;13.13;96.34;101686.34;5177688;28;20033;-75
2023/05/31 01:44:24;;;;;;;7.63;2.15;;;;;;;13.19;96.12;101687.03;5190603;28;20369;-75
2023/05/31 01:46:55;;;;;;;4.00;1.90;;;;;;;13.20;96.71;101699.25;5182529;28;20030;-73
2023/05/31 01:49:25;;;;;;;7.50;2.72;;;;;;;13.12;97.01;101687.25;5189232;28;20036;-75
2023/05/31 01:51:58;;;;;;;10.52;2.47;;;;;;;13.04;96.35;101691.88;5187164;28;20026;-75
2023/05/31 01:54:28;;;;;;;9.70;2.40;;;;;;;13.09;97.13;101695.22;5191878;28;20037;-75
2023/05/31 01:57:00;;;;;;;7.85;2.40;;;;;;;13.15;97.52;101697.66;5188171;28;20026;-75
2023/05/31 01:59:32;;;;;;;9.27;2.25;;;;;;;13.03;97.10;101696.25;5189070;28;20021;-75
2023/05/31 02:02:04;;;;;;;10.55;2.25;;;;;;;13.13;97.09;101699.47;5186469;28;20029;-76
2023/05/31 02:04:35;;;;;;;7.30;2.33;;;;;;;12.94;96.95;101695.66;5184826;28;20037;-72
2023/05/31 02:07:05;;;;;;;7.03;2.40;;;;;;;13.14;97.23;101685.44;5189857;28;20029;-76
2023/05/31 02:09:35;;;;;;;8.60;2.63;;;;;;;13.06;97.49;101687.44;5188835;28;20025;-76
2023/05/31 02:12:06;;;;;;;8.95;2.58;;;;;;;12.99;98.49;101689.38;5189506;28;20082;-73
2023/05/31 02:14:36;;;;;;;7.28;2.60;;;;;;;12.96;98.69;101688.59;5189334;28;20071;-76
2023/05/31 02:17:06;;;;;;;6.93;2.20;;;;;;;12.82;98.79;101690.69;5188890;28;20175;-72
2023/05/31 02:19:37;;;;;;;8.05;2.78;;;;;;;12.76;99.27;101696.09;5189112;28;20046;-75
2023/05/31 02:22:07;;;;;;;8.00;2.40;;;;;;;12.80;97.83;101692.50;5186474;28;20638;-73
2023/05/31 02:24:38;;;;;;;4.68;2.00;;;;;;;12.77;94.99;101694.38;5193109;28;20518;-75
2023/05/31 02:27:08;;;;;;;6.60;2.10;;;;;;;12.62;93.80;101695.59;5190215;28;20167;-75
2023/05/31 02:29:39;;;;;;;6.75;2.00;;;;;;;12.53;95.03;101695.84;5189174;28;20036;-76
2023/05/31 02:32:09;;;;;;;8.80;2.58;;;;;;;12.02;96.37;101688.41;5187279;28;20056;-74
2023/05/31 02:34:39;;;;;;;6.25;2.15;;;;;;;11.88;98.32;101685.25;5186367;28;20025;-75
2023/05/31 02:37:09;;;;;;;6.78;2.17;;;;;;;12.05;98.20;101693.56;5188296;28;20506;-71
2023/05/31 02:39:40;;;;;;;4.60;2.28;;;;;;;11.88;96.92;101686.13;5187940;28;20201;-73
2023/05/31 02:42:10;;;;;;;3.35;1.88;;;;;;;11.63;100.00;101684.09;5186808;28;20093;-76
2023/05/31 02:44:40;;;;;;;5.70;1.85;;;;;;;11.64;100.00;101684.03;5188182;28;20068;-75
2023/05/31 02:47:11;;;;;;;4.75;2.22;;;;;;;11.40;100.00;101681.03;5184434;28;20555;-72
2023/05/31 02:49:41;;;;;;;7.40;2.28;;;;;;;11.34;100.00;101676.81;5187162;28;20034;-75
2023/05/31 02:52:11;;;;;;;4.85;2.17;;;;;;;11.63;100.00;101676.22;5186973;28;20033;-77
2023/05/31 02:54:41;;;;;;;4.90;2.05;;;;;;;11.89;98.74;101681.72;5187504;28;20036;-75
2023/05/31 02:57:12;;;;;;;6.95;2.10;;;;;;;11.71;96.15;101677.78;5186593;28;20092;-72
2023/05/31 02:59:44;;;;;;;8.05;2.38;;;;;;;11.58;97.46;101676.31;5185562;28;20492;-75
2023/05/31 03:02:14;;;;;;;5.30;2.53;;;;;;;11.28;100.00;101679.56;5186762;28;20502;-75
2023/05/31 03:04:45;;;;;;;6.10;2.40;;;;;;;10.97;100.00;101684.56;5186030;28;20076;-73
2023/05/31 03:07:16;;;;;;;6.18;2.33;;;;;;;10.70;100.00;101679.88;5188590;28;20087;-76
2023/05/31 03:09:46;;;;;;;8.32;2.75;;;;;;;10.76;100.00;101684.97;5186990;28;20484;-74
2023/05/31 03:12:16;;;;;;;7.15;2.20;;;;;;;10.95;100.00;101683.75;5188822;28;20021;-73
2023/05/31 03:14:47;;;;;;;5.40;2.40;;;;;;;11.15;100.00;101680.72;5189792;28;20030;-74
2023/05/31 03:17:17;;;;;;;5.22;2.28;;;;;;;11.06;100.00;101691.34;5184861;28;20103;-75
2023/05/31 03:19:47;;;;;;;6.78;2.60;;;;;;;10.97;100.00;101679.34;5186825;28;20046;-73
2023/05/31 03:22:18;;;;;;;6.60;2.60;;;;;;;10.60;100.00;101676.56;5189575;28;20021;-77
2023/05/31 03:24:49;;;;;;;8.18;2.40;;;;;;;10.67;100.00;101683.41;5183054;28;20121;-73
2023/05/31 03:27:19;;;;;;;5.38;2.38;;;;;;;11.08;100.00;101684.34;5193338;28;20051;-73
2023/05/31 03:29:49;;;;;;;7.43;2.50;;;;;;;10.92;100.00;101691.66;5186137;28;20045;-72
2023/05/31 03:32:20;;;;;;;6.60;2.30;;;;;;;11.23;100.00;101685.78;5190303;28;20061;-73
2023/05/31 03:34:50;;;;;;;6.10;2.10;;;;;;;11.28;99.18;101687.41;5185907;28;20084;-73
2023/05/31 03:37:20;;;;;;;7.28;2.50;;;;;;;10.93;99.58;101690.75;5186794;28;20029;-73
2023/05/31 03:39:51;;;;;;;6.72;2.28;;;;;;;11.10;100.00;101690.41;5188607;28;20394;-74
2023/05/31 03:42:21;;;;;;;4.72;2.40;;;;;;;11.42;98.74;101690.59;5190252;28;20193;-74
2023/05/31 03:44:51;;;;;;;4.50;2.25;;;;;;;11.46;97.81;101691.41;5185658;28;20117;-69
2023/05/31 03:47:21;;;;;;;6.25;2.20;;;;;;;11.40;96.91;101691.50;5187362;28;20078;-73
2023/05/31 03:49:52;;;;;;;3.88;2.05;;;;;;;11.37;97.78;101687.22;5185784;28;20401;-73
2023/05/31 03:52:22;;;;;;;9.13;1.98;;;;;;;11.32;97.89;101694.31;5188338;28;20037;-73
2023/05/31 03:54:52;;;;;;;6.15;2.10;;;;;;;11.42;98.10;101697.59;5185818;28;20018;-73
2023/05/31 03:57:23;;;;;;;6.90;2.15;;;;;;;11.36;98.97;101693.34;5190230;28;20471;-72
2023/05/31 03:59:53;;;;;;;5.88;2.28;;;;;;;11.37;100.00;101687.22;5184684;28;20036;-71
2023/05/31 04:02:23;;;;;;;5.80;2.50;;;;;;;11.55;100.00;101686.84;5189052;28;20032;-72
2023/05/31 04:04:54;;;;;;;10.25;2.63;;;;;;;11.70;100.00;101689.16;5186489;28;20496;-72
2023/05/31 04:07:24;;;;;;;7.22;2.58;;;;;;;11.77;100.00;101688.09;5190154;28;20021;-71
2023/05/31 04:09:54;;;;;;;7.97;2.50;;;;;;;12.18;100.00;101688.00;5187396;28;20091;-70
2023/05/31 04:12:24;;;;;;;5.50;2.40;;;;;;;12.22;98.00;101686.16;5192853;28;20064;-73
2023/05/31 04:14:55;;;;;;;8.20;2.25;;;;;;;12.38;96.63;101675.25;5184944;28;20033;-74
2023/05/31 04:17:25;;;;;;;5.53;2.42;;;;;;;12.85;97.38;101666.13;5189048;28;20114;-73
2023/05/31 04:19:56;;;;;;;3.47;2.00;;;;;;;13.28;94.23;101664.91;5191842;28;20032;-73
2023/05/31 04:22:26;;;;;;;8.98;2.72;;;;;;;12.73;95.50;101675.22;5186966;28;20295;-73
2023/05/31 04:24:56;;;;;;;7.57;2.10;;;;;;;12.69;98.03;101677.94;5171432;28;20404;-72
2023/05/31 04:27:27;;;;;;;6.00;2.15;;;;;;;12.76;99.75;101683.00;5181262;28;20079;-73
2023/05/31 04:29:58;;;;;;;7.40;2.40;;;;;;;12.91;95.80;101675.56;5184677;28;20038;-73
2023/05/31 04:32:28;;;;;;;10.25;2.67;;;;;;;12.90;96.26;101692.19;5180295;28;20079;-75
2023/05/31 04:34:58;;;;;;;9.32;2.20;;;;;;;13.44;95.14;101681.94;5182034;28;20092;-73
2023/05/31 04:37:32;;;;;;;7.68;2.50;;;;;;;13.55;93.45;101669.38;5187469;28;20029;-73
2023/05/31 04:40:05;;;;;;;6.38;2.20;;;;;;;13.96;93.32;101677.69;5167762;28;20076;-72
2023/05/31 04:42:36;;;;;;;6.90;2.15;;;;;;;16.01;83.56;101671.97;5183012;28;20040;-73
2023/05/31 04:45:07;;;;;;;6.43;2.17;;;;;;;18.10;75.26;101661.59;5185700;28;20022;-72
2023/05/31 04:47:38;;;;;;;6.25;2.15;;;;;;;18.89;71.14;101660.13;5182295;28;20116;-73
2023/05/31 04:50:08;;;;;;;4.65;1.70;;;;;;;20.62;65.08;101652.06;5188828;28;20117;-74
2023/05/31 04:52:40;;;;;;;3.80;1.75;;;;;;;22.23;61.81;101650.63;5187691;28;20505;-75
2023/05/31 04:55:10;;;;;;;5.43;1.85;;;;;;;22.51;60.62;101653.16;5186953;28;20124;-73
2023/05/31 04:57:40;;;;;;;5.40;1.70;;;;;;;22.18;61.11;101650.06;5182035;28;20090;-74
2023/05/31 05:00:16;;;;;;;5.20;1.75;;;;;;;23.87;58.14;101657.59;5191418;28;20281;-74
2023/05/31 05:02:46;;;;;;;5.05;1.40;;;;;;;24.23;57.62;101649.50;5184070;28;20025;-73
2023/05/31 05:05:17;;;;;;;2.97;1.50;;;;;;;24.28;55.93;101650.03;5192772;28;20490;-73
2023/05/31 05:07:47;;;;;;;4.13;1.40;;;;;;;24.86;55.96;101648.19;5188449;28;20350;-75
2023/05/31 05:10:17;;;;;;;6.47;1.83;;;;;;;25.35;53.55;101650.56;5190472;28;20665;-74
2023/05/31 05:12:48;;;;;;;4.78;2.00;;;;;;;23.36;59.15;101665.81;5186004;28;20280;-70
2023/05/31 05:15:18;;;;;;;4.47;1.50;;;;;;;25.02;55.01;101650.50;5185135;28;20022;-74
2023/05/31 05:17:48;;;;;;;3.25;1.63;;;;;;;24.84;55.70;101668.00;5182491;28;20272;-73
2023/05/31 05:20:19;;;;;;;6.18;1.58;;;;;;;25.12;54.99;101659.53;5187381;28;20021;-75
2023/05/31 05:22:53;;;;;;;5.68;1.70;;;;;;;25.13;54.88;101658.56;5188534;28;20164;-75
2023/05/31 05:25:23;;;;;;;4.13;1.55;;;;;;;25.08;54.78;101664.25;5188868;28;20053;-74
2023/05/31 05:27:53;;;;;;;5.80;1.50;;;;;;;25.64;53.64;101662.47;5188237;28;20038;-72
2023/05/31 05:30:25;;;;;;;5.67;1.50;;;;;;;24.66;55.78;101672.09;5175494;28;20637;-76
2023/05/31 05:32:56;;;;;;;3.95;1.60;;;;;;;24.77;54.66;101666.78;5189216;28;20354;-70
2023/05/31 05:35:26;;;;;;;5.82;2.00;;;;;;;24.01;55.65;101670.78;5188717;28;20114;-74
2023/05/31 05:37:57;;;;;;;3.63;1.63;;;;;;;24.27;56.40;101666.19;5185527;28;20467;-73
2023/05/31 05:40:27;;;;;;;11.40;1.65;;;;;;;24.64;54.94;101665.13;5190084;28;20032;-74
2023/05/31 05:42:58;;;;;;;4.33;1.47;;;;;;;24.65;55.32;101665.03;5187895;28;20480;-74
2023/05/31 05:45:28;;;;;;;5.28;1.50;;;;;;;24.52;55.14;101666.94;5185321;28;20280;-73
2023/05/31 05:47:58;;;;;;;4.88;1.50;;;;;;;23.30;57.94;101660.91;5181251;28;20547;-76
2023/05/31 05:50:29;;;;;;;4.18;1.55;;;;;;;23.08;58.42;101656.22;5187175;28;20113;-75
2023/05/31 05:52:59;;;;;;;6.75;1.73;;;;;;;22.04;59.76;101663.41;5189802;28;20056;-73
2023/05/31 05:55:30;;;;;;;7.03;1.50;;;;;;;22.14;59.76;101659.22;5189437;28;20497;-70
2023/05/31 05:58:00;;;;;;;8.68;1.60;;;;;;;21.78;61.38;101666.94;5184901;28;20125;-73
2023/05/31 06:00:30;;;;;;;4.53;1.50;;;;;;;21.09;61.70;101674.00;5189535;28;20060;-73
2023/05/31 06:03:00;;;;;;;5.28;1.40;;;;;;;20.83;63.68;101661.38;5183151;28;20793;-75
2023/05/31 06:05:31;;;;;;;6.78;1.77;;;;;;;20.71;64.32;101667.47;5187412;28;20197;-73
2023/05/31 06:08:02;;;;;;;6.30;1.60;;;;;;;20.38;64.12;101665.91;5187004;28;20535;-74
2023/05/31 06:10:32;;;;;;;4.55;1.70;;;;;;;19.66;65.97;101665.66;5190657;28;20033;-74
2023/05/31 06:13:03;;;;;;;3.45;1.30;;;;;;;20.25;64.78;101663.13;5188760;28;20033;-74
2023/05/31 06:15:33;;;;;;;7.13;1.50;;;;;;;21.41;63.99;101660.38;5188569;28;20025;-74
2023/05/31 06:18:03;;;;;;;3.95;1.38;;;;;;;21.10;63.55;101657.09;5182759;28;20042;-74
2023/05/31 06:20:34;;;;;;;4.90;1.60;;;;;;;21.93;61.65;101656.13;5187632;28;20061;-73
2023/05/31 06:23:04;;;;;;;6.22;1.60;;;;;;;22.10;61.59;101655.03;5186103;28;20157;-74
2023/05/31 06:25:36;;;;;;;6.97;1.70;;;;;;;22.06;60.71;101648.22;5185518;28;20033;-74
2023/05/31 06:28:06;;;;;;;5.03;1.60;;;;;;;22.07;60.35;101655.25;5185769;28;20030;-70
2023/05/31 06:30:36;;;;;;;5.70;1.45;;;;;;;21.06;61.96;101658.22;5189424;28;20404;-73
2023/05/31 06:33:07;;;;;;;6.28;1.52;;;;;;;21.89;59.73;101657.28;5183864;28;20037;-70
2023/05/31 06:35:37;;;;;;;5.63;1.15;;;;;;;22.44;60.10;101655.38;5188769;28;20033;-73
2023/05/31 06:38:14;;;;;;;6.40;1.33;;;;;;;23.56;57.00;101647.38;5187103;28;20029;-72
2023/05/31 06:40:45;;;;;;;5.82;1.20;;;;;;;23.16;56.11;101653.03;5187186;28;20021;-71
2023/05/31 06:43:15;;;;;;;8.20;1.23;;;;;;;22.55;57.86;101655.50;5186292;28;20390;-76
2023/05/31 06:45:48;;;;;;;6.90;1.17;;;;;;;23.24;56.89;101653.34;5187368;28;20036;-74
2023/05/31 06:48:18;;;;;;;7.05;1.23;;;;;;;24.20;55.51;101663.13;5188284;28;20036;-75
2023/05/31 06:50:48;;;;;;;5.00;1.37;;;;;;;25.00;53.96;101649.78;5186419;28;20479;-71
2023/05/31 06:53:19;;;;;;;4.50;1.17;;;;;;;23.93;55.38;101661.63;5188687;28;20272;-74
2023/05/31 06:55:49;;;;;;;3.40;1.20;;;;;;;24.14;56.59;101655.56;5184418;28;20365;-73
2023/05/31 06:58:19;;;;;;;3.53;1.30;;;;;;;25.11;54.11;101655.16;5188293;28;20041;-74
2023/05/31 07:00:49;;;;;;;4.38;1.30;;;;;;;24.13;54.23;101658.34;5185909;28;20788;-75
2023/05/31 07:03:20;;;;;;;4.17;1.30;;;;;;;23.12;56.65;101663.06;5189946;28;20033;-76
2023/05/31 07:05:50;;;;;;;3.10;0.97;;;;;;;24.50;54.39;101658.13;5185596;28;20296;-76
2023/05/31 07:08:20;;;;;;;3.00;1.20;;;;;;;26.46;51.46;101639.44;5185709;28;20292;-75
2023/05/31 07:10:51;;;;;;;2.65;1.00;;;;;;;26.07;53.09;101648.16;5188748;28;20690;-75
2023/05/31 07:13:22;;;;;;;2.15;1.00;;;;;;;26.57;50.57;101646.59;5186771;28;20053;-74
2023/05/31 07:15:53;;;;;;;3.40;1.30;;;;;;;27.25;50.70;101640.53;5185835;28;20022;-76
2023/05/31 07:18:23;;;;;;;2.23;1.20;;;;;;;26.89;50.42;101653.59;5188456;28;20027;-75
2023/05/31 07:20:56;;;;;;;4.70;1.20;;;;;;;27.14;48.91;101643.31;5184916;28;20277;-73
2023/05/31 07:23:26;;;;;;;3.63;1.40;;;;;;;26.99;50.88;101643.78;5187050;28;20777;-75
2023/05/31 07:25:57;;;;;;;3.75;0.80;;;;;;;26.49;50.67;101644.56;5185968;28;20034;-74
2023/05/31 07:28:27;;;;;;;4.85;0.90;;;;;;;28.06;48.72;101643.91;5185991;28;20026;-74
2023/05/31 07:30:58;;;;;;;2.38;1.27;;;;;;;26.89;49.47;101649.09;5185833;28;20030;-76
2023/05/31 07:33:28;;;;;;;5.70;1.00;;;;;;;27.41;49.13;101640.91;5188224;28;20033;-75
2023/05/31 07:36:00;;;;;;;3.45;0.90;;;;;;;26.14;51.17;101643.13;5186147;28;20276;-76
2023/05/31 07:38:30;;;;;;;6.68;1.20;;;;;;;27.01;50.17;101634.63;5185611;28;20426;-73
2023/05/31 07:41:01;;;;;;;3.22;0.98;;;;;;;27.39;50.36;101636.63;5187033;28;20029;-75
2023/05/31 07:43:32;;;;;;;2.95;0.95;;;;;;;28.64;48.07;101632.16;5188742;28;20095;-75
2023/05/31 07:46:02;;;;;;;4.63;0.90;;;;;;;28.29;48.68;101634.56;5186040;28;20479;-75
2023/05/31 07:48:33;;;;;;;1.38;0.80;;;;;;;29.00;46.10;101626.88;5184663;28;20112;-74
2023/05/31 07:51:03;;;;;;;3.85;1.00;;;;;;;28.76;48.62;101623.78;5186390;28;20941;-76
2023/05/31 07:53:34;;;;;;;2.33;0.90;;;;;;;27.54;49.10;101628.06;5189372;28;20082;-76
2023/05/31 07:56:05;;;;;;;3.88;0.93;;;;;;;28.97;47.01;101616.41;5186251;28;20021;-71
2023/05/31 07:58:36;;;;;;;3.40;1.05;;;;;;;28.55;46.96;101619.59;5186572;28;20796;-74
2023/05/31 08:01:06;;;;;;;2.05;0.80;;;;;;;29.90;44.86;101622.47;5186142;28;20225;-72
2023/05/31 08:03:37;;;;;;;3.57;1.10;;;;;;;28.23;47.50;101627.06;5187139;28;20136;-76
2023/05/31 08:06:07;;;;;;;2.00;1.10;;;;;;;30.41;44.60;101619.97;5185835;28;20989;-72
2023/05/31 08:08:38;;;;;;;1.83;0.90;;;;;;;28.97;45.67;101618.22;5189242;28;20362;-75
2023/05/31 08:11:08;;;;;;;2.13;0.88;;;;;;;28.33;46.99;101625.25;5185832;28;20124;-77
2023/05/31 08:13:39;;;;;;;2.90;0.90;;;;;;;29.64;45.80;101608.03;5186078;28;20067;-75
2023/05/31 08:16:10;;;;;;;3.03;1.08;;;;;;;30.21;44.50;101610.31;5185735;28;20026;-75
2023/05/31 08:18:40;;;;;;;3.20;1.10;;;;;;;29.56;44.43;101608.78;5185999;28;20022;-75
2023/05/31 08:21:11;;;;;;;1.40;0.73;;;;;;;30.35;43.86;101602.53;5186404;28;20292;-75
2023/05/31 08:23:43;;;;;;;2.10;0.80;;;;;;;30.09;44.08;101600.78;5185382;28;20041;-74
2023/05/31 08:26:13;;;;;;;2.90;1.05;;;;;;;30.01;44.71;101600.66;5186876;28;20033;-76
2023/05/31 08:28:43;;;;;;;3.40;1.10;;;;;;;31.42;43.25;101594.81;5185058;28;20092;-74
2023/05/31 08:31:14;;;;;;;3.87;1.00;;;;;;;31.88;40.88;101592.41;5185954;28;20856;-76
2023/05/31 08:33:55;;;;;;;2.47;0.70;;;;;;;30.01;42.36;101600.66;5185168;28;20022;-77
2023/05/31 08:36:26;;;;;;;4.28;1.02;;;;;;;30.53;42.02;101602.50;5189304;28;20051;-74
2023/05/31 08:38:57;;;;;;;4.65;0.82;;;;;;;31.17;41.90;101590.31;5190188;28;20033;-75
2023/05/31 08:41:30;;;;;;;1.35;0.90;;;;;;;31.47;41.91;101604.13;5191151;28;20406;-74
2023/05/31 08:44:02;;;;;;;2.33;0.80;;;;;;;31.60;40.76;101598.25;5192701;28;20025;-74
2023/05/31 08:46:32;;;;;;;2.47;0.95;;;;;;;31.42;40.28;101595.66;5190766;28;20029;-75
2023/05/31 08:49:10;;;;;;;2.83;0.90;;;;;;;29.70;40.36;101593.94;5187777;28;20294;-74
2023/05/31 08:51:43;;;;;;;2.95;0.80;;;;;;;31.50;40.56;101592.16;5190061;28;20083;-75
2023/05/31 08:54:14;;;;;;;4.95;0.90;;;;;;;29.14;43.00;101591.38;5189267;28;20411;-77
2023/05/31 08:56:45;;;;;;;3.58;1.08;;;;;;;29.23;44.53;101586.97;5191603;28;20026;-75
2023/05/31 08:59:18;;;;;;;1.63;0.70;;;;;;;31.10;42.01;101579.28;5187926;28;20021;-72
2023/05/31 09:01:49;;;;;;;3.40;0.80;;;;;;;32.86;39.54;101574.16;5191347;28;20028;-72
2023/05/31 09:04:19;;;;;;;2.85;1.15;;;;;;;32.18;39.62;101574.75;5193055;28;20056;-75
2023/05/31 09:06:51;;;;;;;2.88;1.00;;;;;;;32.02;39.91;101572.81;5191227;28;20104;-74
2023/05/31 09:09:21;;;;;;;2.22;1.05;;;;;;;31.48;39.51;101580.63;5188290;28;20025;-77
2023/05/31 09:11:52;;;;;;;2.70;1.00;;;;;;;30.26;41.10;101575.66;5186754;28;20033;-75
2023/05/31 09:14:25;;;;;;;3.90;0.90;;;;;;;30.30;41.01;101577.88;5190699;28;20272;-77
2023/05/31 09:16:56;;;;;;;3.13;0.90;;;;;;;28.57;43.89;101576.38;5189135;28;20025;-74
2023/05/31 09:19:26;;;;;;;1.52;0.70;;;;;;;28.08;44.07;101574.69;5192194;28;20252;-74
2023/05/31 09:21:56;;;;;;;2.27;0.70;;;;;;;29.12;43.85;101573.66;5186507;28;20035;-77
2023/05/31 09:24:27;;;;;;;4.75;1.05;;;;;;;29.57;42.37;101566.50;5190629;28;20084;-76
2023/05/31 09:27:00;;;;;;;3.92;1.10;;;;;;;29.92;41.34;101569.22;5187956;28;20583;-75
2023/05/31 09:29:31;;;;;;;1.73;0.80;;;;;;;30.01;42.23;101565.59;5190577;28;20037;-75
2023/05/31 09:32:09;;;;;;;1.80;0.82;;;;;;;30.33;42.10;101564.06;5187377;28;20021;-75
2023/05/31 09:34:40;;;;;;;1.88;0.80;;;;;;;30.13;42.86;101553.59;5188280;28;20112;-76
2023/05/31 09:37:20;;;;;;;2.65;0.90;;;;;;;28.02;45.37;101567.22;5188003;28;20112;-73
2023/05/31 09:39:57;;;;;;;2.25;0.77;;;;;;;29.42;44.78;101551.81;5186769;28;20089;-77
2023/05/31 09:42:29;;;;;;;2.60;0.90;;;;;;;29.62;43.84;101553.41;5186885;28;20035;-74
2023/05/31 09:44:59;;;;;;;2.20;0.95;;;;;;;30.95;43.67;101553.88;5191616;28;20057;-73
2023/05/31 09:47:30;;;;;;;3.15;1.20;;;;;;;31.69;42.17;101546.75;5189897;28;20121;-73
2023/05/31 09:50:00;;;;;;;3.35;1.08;;;;;;;29.80;42.93;101548.88;5191285;28;20494;-73
2023/05/31 09:52:31;;;;;;;2.03;0.85;;;;;;;29.69;43.22;101549.97;5191452;28;20381;-73
2023/05/31 09:55:05;;;;;;;3.65;1.02;;;;;;;29.37;44.00;101546.03;5189238;28;20080;-74
2023/05/31 09:57:40;;;;;;;4.72;1.42;;;;;;;29.81;43.67;101543.34;5189109;28;20029;-75
2023/05/31 10:00:17;;;;;;;2.78;0.98;;;;;;;29.96;43.97;101536.41;5188909;28;20123;-75
2023/05/31 10:02:50;;;;;;;2.58;0.90;;;;;;;29.96;42.93;101536.41;5189410;28;20441;-72
2023/05/31 10:05:21;;;;;;;5.60;1.13;;;;;;;30.84;41.31;101529.81;5193008;28;20375;-73
2023/05/31 10:07:52;;;;;;;1.98;0.88;;;;;;;30.05;41.91;101537.38;5189245;28;20065;-75
2023/05/31 10:10:23;;;;;;;2.80;1.00;;;;;;;28.49;43.71;101536.72;5191870;28;20201;-73
2023/05/31 10:13:02;;;;;;;3.40;0.95;;;;;;;28.73;45.25;101533.53;5190945;28;20025;-74
2023/05/31 10:15:35;;;;;;;4.15;1.17;;;;;;;28.99;44.60;101522.84;5191016;28;20757;-75
2023/05/31 10:18:10;;;;;;;2.33;0.90;;;;;;;27.80;43.89;101535.22;5190305;28;20614;-74
2023/05/31 10:20:46;;;;;;;4.53;0.90;;;;;;;27.62;45.75;101523.44;5191658;28;20035;-75
2023/05/31 10:23:23;;;;;;;3.33;0.85;;;;;;;27.85;45.52;101527.59;5188086;28;20036;-74
2023/05/31 10:26:15;;;;;;;2.72;1.00;;;;;;;27.45;45.14;101518.75;5186778;28;20026;-74
2023/05/31 10:29:01;;;;;;;3.88;1.02;;;;;;;27.28;45.16;101526.63;5190147;28;20025;-74
2023/05/31 10:31:43;;;;;;;2.25;0.88;;;;;;;26.68;45.67;101523.13;5188674;28;20021;-74
2023/05/31 10:34:20;;;;;;;4.00;1.27;;;;;;;26.66;45.95;101517.06;5191279;28;20029;-73
2023/05/31 10:36:53;;;;;;;1.52;0.77;;;;;;;26.95;47.04;101511.66;5189561;28;20028;-72
2023/05/31 10:39:36;;;;;;;2.33;0.70;;;;;;;26.82;47.22;101513.75;5187144;28;20032;-74
2023/05/31 10:42:10;;;;;;;2.80;1.00;;;;;;;26.39;47.42;101517.59;5183647;28;20167;-72
2023/05/31 10:44:55;;;;;;;2.78;0.90;;;;;;;26.08;47.65;101515.81;5186586;28;20653;-74
2023/05/31 10:47:33;;;;;;;2.30;0.90;;;;;;;25.04;47.55;101509.41;5179144;28;20061;-73
2023/05/31 10:50:05;;;;;;;4.63;1.00;;;;;;;25.22;48.46;101505.28;5185834;28;20045;-73
2023/05/31 10:52:36;;;;;;;1.88;0.80;;;;;;;25.52;49.07;101505.44;5182766;28;20491;-74
2023/05/31 10:55:19;;;;;;;4.47;1.07;;;;;;;25.74;49.13;101500.00;5186910;28;20029;-74
2023/05/31 10:57:53;;;;;;;6.47;0.95;;;;;;;26.12;47.61;101494.94;5181286;28;20284;-74
2023/05/31 11:00:23;;;;;;;1.40;0.73;;;;;;;25.93;46.64;101494.81;5188053;28;20112;-73
2023/05/31 11:02:58;;;;;;;2.90;0.75;;;;;;;25.63;47.30;101492.03;5186216;28;20108;-72
2023/05/31 11:05:28;;;;;;;2.25;0.80;;;;;;;25.94;46.88;101485.78;5180895;28;20313;-74
2023/05/31 11:07:59;;;;;;;4.73;0.90;;;;;;;25.88;46.91;101494.38;5179879;28;20033;-74
2023/05/31 11:10:34;;;;;;;2.33;0.73;;;;;;;25.73;47.31;101480.41;5183514;28;20280;-74
2023/05/31 11:13:05;;;;;;;1.45;0.73;;;;;;;26.07;47.58;101478.41;5181622;28;20667;-73
2023/05/31 11:15:41;;;;;;;1.92;0.80;;;;;;;25.64;46.56;101481.16;5180232;28;20044;-74
2023/05/31 11:18:26;;;;;;;2.70;0.90;;;;;;;25.81;46.05;101479.75;5179320;28;20052;-74
2023/05/31 11:20:57;;;;;;;2.58;0.80;;;;;;;26.13;45.23;101478.75;5180154;28;20029;-74
2023/05/31 11:23:31;;;;;;;4.17;0.80;;;;;;;25.82;45.98;101476.09;5177891;28;20351;-73
2023/05/31 11:26:18;;;;;;;1.30;0.68;;;;;;;25.85;44.37;101475.88;5179296;28;20391;-73
2023/05/31 11:29:00;;;;;;;4.40;0.70;;;;;;;25.80;45.53;101470.84;5182088;28;20026;-70
2023/05/31 11:31:49;;;;;;;3.17;0.80;;;;;;;25.76;44.65;101471.25;5180721;28;20033;-74
2023/05/31 11:34:23;;;;;;;1.85;0.70;;;;;;;25.87;43.76;101465.88;5177060;28;20030;-70
2023/05/31 11:36:56;;;;;;;1.88;0.75;;;;;;;25.85;43.04;101454.44;5179180;28;20060;-73
2023/05/31 11:39:27;;;;;;;2.05;0.82;;;;;;;25.74;43.43;101462.47;5178946;28;20036;-72
2023/05/31 11:41:58;;;;;;;3.20;0.90;;;;;;;25.88;44.23;101454.16;5175994;28;20029;-74
2023/05/31 11:44:31;;;;;;;3.00;0.90;;;;;;;25.70;45.72;101453.00;5181997;28;20096;-74
2023/05/31 11:47:05;;;;;;;3.17;0.80;;;;;;;25.49;46.09;101458.34;5182607;28;20075;-74